sensor_id;sensor_type;location;lat;lon;timestamp;P1;durP1;ratioP1;P2;durP2;ratioP2
59756;SDS011;45631;51.962;5.974;2023-07-16T00:01:04;8.55;;;2.78;;
59756;SDS011;45631;51.962;5.974;2023-07-16T00:03:32;8.50;;;2.85;;
59756;SDS011;45631;51.962;5.974;2023-07-16T00:06:01;9.27;;;2.72;;
59756;SDS011;45631;51.962;5.974;2023-07-16T00:08:29;8.15;;;3.08;;
59756;SDS011;45631;51.962;5.974;2023-07-16T00:10:57;7.82;;;2.85;;
59756;SDS011;45631;51.962;5.974;2023-07-16T00:13:25;5.80;;;2.42;;
59756;SDS011;45631;51.962;5.974;2023-07-16T00:15:54;8.90;;;2.97;;
59756;SDS011;45631;51.962;5.974;2023-07-16T00:18:26;9.35;;;3.05;;
59756;SDS011;45631;51.962;5.974;2023-07-16T00:20:55;7.97;;;3.08;;
59756;SDS011;45631;51.962;5.974;2023-07-16T00:23:23;8.95;;;3.45;;
59756;SDS011;45631;51.962;5.974;2023-07-16T00:25:51;12.57;;;3.60;;
59756;SDS011;45631;51.962;5.974;2023-07-16T00:28:22;10.25;;;3.28;;
59756;SDS011;45631;51.962;5.974;2023-07-16T00:30:51;10.95;;;3.30;;
59756;SDS011;45631;51.962;5.974;2023-07-16T00:33:19;8.25;;;3.10;;
59756;SDS011;45631;51.962;5.974;2023-07-16T00:35:49;8.15;;;3.53;;
59756;SDS011;45631;51.962;5.974;2023-07-16T00:38:17;7.95;;;3.42;;
59756;SDS011;45631;51.962;5.974;2023-07-16T00:40:46;9.75;;;3.80;;
59756;SDS011;45631;51.962;5.974;2023-07-16T00:43:15;9.32;;;3.15;;
59756;SDS011;45631;51.962;5.974;2023-07-16T00:45:45;10.05;;;4.00;;
59756;SDS011;45631;51.962;5.974;2023-07-16T00:48:14;11.32;;;4.50;;
59756;SDS011;45631;51.962;5.974;2023-07-16T00:50:45;12.52;;;3.60;;
59756;SDS011;45631;51.962;5.974;2023-07-16T00:53:17;8.75;;;3.55;;
59756;SDS011;45631;51.962;5.974;2023-07-16T00:55:46;11.57;;;4.38;;
59756;SDS011;45631;51.962;5.974;2023-07-16T00:58:18;10.27;;;3.42;;
59756;SDS011;45631;51.962;5.974;2023-07-16T01:00:46;9.02;;;3.47;;
59756;SDS011;45631;51.962;5.974;2023-07-16T01:03:14;8.52;;;3.42;;
59756;SDS011;45631;51.962;5.974;2023-07-16T01:05:45;8.10;;;3.25;;
59756;SDS011;45631;51.962;5.974;2023-07-16T01:08:20;13.45;;;4.00;;
59756;SDS011;45631;51.962;5.974;2023-07-16T01:10:55;11.30;;;3.40;;
59756;SDS011;45631;51.962;5.974;2023-07-16T01:13:23;10.30;;;3.47;;
59756;SDS011;45631;51.962;5.974;2023-07-16T01:15:53;8.70;;;3.22;;
59756;SDS011;45631;51.962;5.974;2023-07-16T01:18:21;8.52;;;3.03;;
59756;SDS011;45631;51.962;5.974;2023-07-16T01:20:49;8.18;;;3.05;;
59756;SDS011;45631;51.962;5.974;2023-07-16T01:23:38;8.45;;;2.95;;
59756;SDS011;45631;51.962;5.974;2023-07-16T01:26:28;7.93;;;2.90;;
59756;SDS011;45631;51.962;5.974;2023-07-16T01:29:11;11.02;;;2.90;;
59756;SDS011;45631;51.962;5.974;2023-07-16T01:31:59;10.20;;;2.67;;
59756;SDS011;45631;51.962;5.974;2023-07-16T01:34:29;10.88;;;3.08;;
59756;SDS011;45631;51.962;5.974;2023-07-16T01:37:00;10.15;;;2.58;;
59756;SDS011;45631;51.962;5.974;2023-07-16T01:39:28;6.50;;;2.47;;
59756;SDS011;45631;51.962;5.974;2023-07-16T01:41:59;8.25;;;2.80;;
59756;SDS011;45631;51.962;5.974;2023-07-16T01:44:29;11.30;;;3.33;;
59756;SDS011;45631;51.962;5.974;2023-07-16T01:47:03;12.98;;;3.15;;
59756;SDS011;45631;51.962;5.974;2023-07-16T01:49:35;9.18;;;3.22;;
59756;SDS011;45631;51.962;5.974;2023-07-16T01:52:04;11.80;;;3.05;;
59756;SDS011;45631;51.962;5.974;2023-07-16T01:54:33;7.43;;;2.63;;
59756;SDS011;45631;51.962;5.974;2023-07-16T01:57:02;11.00;;;2.80;;
59756;SDS011;45631;51.962;5.974;2023-07-16T01:59:32;8.13;;;3.05;;
59756;SDS011;45631;51.962;5.974;2023-07-16T02:02:00;12.05;;;2.95;;
59756;SDS011;45631;51.962;5.974;2023-07-16T02:04:28;8.13;;;2.75;;
59756;SDS011;45631;51.962;5.974;2023-07-16T02:06:56;10.40;;;3.22;;
59756;SDS011;45631;51.962;5.974;2023-07-16T02:09:24;11.45;;;3.30;;
59756;SDS011;45631;51.962;5.974;2023-07-16T02:11:53;9.52;;;2.85;;
59756;SDS011;45631;51.962;5.974;2023-07-16T02:14:23;9.90;;;2.85;;
59756;SDS011;45631;51.962;5.974;2023-07-16T02:16:53;10.30;;;2.85;;
59756;SDS011;45631;51.962;5.974;2023-07-16T02:19:21;9.05;;;2.80;;
59756;SDS011;45631;51.962;5.974;2023-07-16T02:21:49;13.00;;;3.40;;
59756;SDS011;45631;51.962;5.974;2023-07-16T02:24:18;11.90;;;3.15;;
59756;SDS011;45631;51.962;5.974;2023-07-16T02:26:46;10.10;;;3.03;;
59756;SDS011;45631;51.962;5.974;2023-07-16T02:29:14;14.38;;;3.15;;
59756;SDS011;45631;51.962;5.974;2023-07-16T02:31:42;13.40;;;3.17;;
59756;SDS011;45631;51.962;5.974;2023-07-16T02:34:14;9.43;;;3.45;;
59756;SDS011;45631;51.962;5.974;2023-07-16T02:36:42;8.45;;;3.20;;
59756;SDS011;45631;51.962;5.974;2023-07-16T02:39:11;10.02;;;2.92;;
59756;SDS011;45631;51.962;5.974;2023-07-16T02:41:42;8.43;;;2.83;;
59756;SDS011;45631;51.962;5.974;2023-07-16T02:44:10;12.07;;;3.72;;
59756;SDS011;45631;51.962;5.974;2023-07-16T02:46:41;10.57;;;3.28;;
59756;SDS011;45631;51.962;5.974;2023-07-16T02:49:10;11.23;;;3.50;;
59756;SDS011;45631;51.962;5.974;2023-07-16T02:51:40;10.05;;;3.00;;
59756;SDS011;45631;51.962;5.974;2023-07-16T02:54:08;9.38;;;3.40;;
59756;SDS011;45631;51.962;5.974;2023-07-16T02:56:36;12.43;;;3.30;;
59756;SDS011;45631;51.962;5.974;2023-07-16T02:59:04;13.95;;;3.83;;
59756;SDS011;45631;51.962;5.974;2023-07-16T03:01:33;12.15;;;3.50;;
59756;SDS011;45631;51.962;5.974;2023-07-16T03:04:01;12.60;;;3.50;;
59756;SDS011;45631;51.962;5.974;2023-07-16T03:06:29;9.38;;;3.15;;
59756;SDS011;45631;51.962;5.974;2023-07-16T03:08:59;9.27;;;3.10;;
59756;SDS011;45631;51.962;5.974;2023-07-16T03:11:28;7.85;;;3.08;;
59756;SDS011;45631;51.962;5.974;2023-07-16T03:13:58;8.90;;;2.40;;
59756;SDS011;45631;51.962;5.974;2023-07-16T03:16:29;9.45;;;3.47;;
59756;SDS011;45631;51.962;5.974;2023-07-16T03:18:57;9.77;;;3.25;;
59756;SDS011;45631;51.962;5.974;2023-07-16T03:21:29;10.85;;;2.85;;
59756;SDS011;45631;51.962;5.974;2023-07-16T03:23:57;8.00;;;3.50;;
59756;SDS011;45631;51.962;5.974;2023-07-16T03:26:26;7.65;;;2.92;;
59756;SDS011;45631;51.962;5.974;2023-07-16T03:28:55;9.18;;;3.53;;
59756;SDS011;45631;51.962;5.974;2023-07-16T03:31:23;8.82;;;3.20;;
59756;SDS011;45631;51.962;5.974;2023-07-16T03:33:51;9.00;;;3.55;;
59756;SDS011;45631;51.962;5.974;2023-07-16T03:36:19;9.25;;;2.83;;
59756;SDS011;45631;51.962;5.974;2023-07-16T03:38:47;9.00;;;3.22;;
59756;SDS011;45631;51.962;5.974;2023-07-16T03:41:15;13.48;;;3.22;;
59756;SDS011;45631;51.962;5.974;2023-07-16T03:43:45;8.50;;;3.30;;
59756;SDS011;45631;51.962;5.974;2023-07-16T03:46:13;8.65;;;3.30;;
59756;SDS011;45631;51.962;5.974;2023-07-16T03:48:42;9.43;;;3.05;;
59756;SDS011;45631;51.962;5.974;2023-07-16T03:51:10;10.77;;;3.60;;
59756;SDS011;45631;51.962;5.974;2023-07-16T03:53:41;11.27;;;3.78;;
59756;SDS011;45631;51.962;5.974;2023-07-16T03:56:09;10.40;;;3.85;;
59756;SDS011;45631;51.962;5.974;2023-07-16T03:58:37;9.23;;;3.08;;
59756;SDS011;45631;51.962;5.974;2023-07-16T04:01:07;10.65;;;3.78;;
59756;SDS011;45631;51.962;5.974;2023-07-16T04:03:38;9.65;;;3.53;;
59756;SDS011;45631;51.962;5.974;2023-07-16T04:06:08;12.70;;;4.28;;
59756;SDS011;45631;51.962;5.974;2023-07-16T04:08:37;13.85;;;3.78;;
59756;SDS011;45631;51.962;5.974;2023-07-16T04:11:05;8.20;;;3.45;;
59756;SDS011;45631;51.962;5.974;2023-07-16T04:13:34;9.77;;;3.53;;
59756;SDS011;45631;51.962;5.974;2023-07-16T04:16:02;12.52;;;4.72;;
59756;SDS011;45631;51.962;5.974;2023-07-16T04:18:32;11.20;;;4.15;;
59756;SDS011;45631;51.962;5.974;2023-07-16T04:21:00;11.98;;;3.80;;
59756;SDS011;45631;51.962;5.974;2023-07-16T04:23:28;11.60;;;3.83;;
59756;SDS011;45631;51.962;5.974;2023-07-16T04:25:56;11.05;;;3.85;;
59756;SDS011;45631;51.962;5.974;2023-07-16T04:28:25;11.02;;;3.80;;
59756;SDS011;45631;51.962;5.974;2023-07-16T04:30:53;10.10;;;3.70;;
59756;SDS011;45631;51.962;5.974;2023-07-16T04:33:21;8.68;;;3.15;;
59756;SDS011;45631;51.962;5.974;2023-07-16T04:35:50;9.57;;;3.83;;
59756;SDS011;45631;51.962;5.974;2023-07-16T04:38:19;12.38;;;4.43;;
59756;SDS011;45631;51.962;5.974;2023-07-16T04:40:47;11.57;;;4.53;;
59756;SDS011;45631;51.962;5.974;2023-07-16T04:43:15;13.82;;;4.10;;
59756;SDS011;45631;51.962;5.974;2023-07-16T04:45:43;9.40;;;4.30;;
59756;SDS011;45631;51.962;5.974;2023-07-16T04:48:13;13.10;;;4.53;;
59756;SDS011;45631;51.962;5.974;2023-07-16T04:50:41;11.05;;;4.30;;
59756;SDS011;45631;51.962;5.974;2023-07-16T04:53:11;10.15;;;4.82;;
59756;SDS011;45631;51.962;5.974;2023-07-16T04:55:39;14.63;;;5.00;;
59756;SDS011;45631;51.962;5.974;2023-07-16T04:58:09;11.98;;;4.40;;
59756;SDS011;45631;51.962;5.974;2023-07-16T05:00:38;10.30;;;4.30;;
59756;SDS011;45631;51.962;5.974;2023-07-16T05:03:10;10.63;;;4.00;;
59756;SDS011;45631;51.962;5.974;2023-07-16T05:05:38;10.25;;;3.95;;
59756;SDS011;45631;51.962;5.974;2023-07-16T05:08:06;9.80;;;4.25;;
59756;SDS011;45631;51.962;5.974;2023-07-16T05:10:35;8.70;;;4.05;;
59756;SDS011;45631;51.962;5.974;2023-07-16T05:13:03;10.73;;;4.05;;
59756;SDS011;45631;51.962;5.974;2023-07-16T05:15:32;11.10;;;4.65;;
59756;SDS011;45631;51.962;5.974;2023-07-16T05:18:00;8.65;;;4.28;;
59756;SDS011;45631;51.962;5.974;2023-07-16T05:20:29;10.43;;;4.55;;
59756;SDS011;45631;51.962;5.974;2023-07-16T05:22:57;10.30;;;4.95;;
59756;SDS011;45631;51.962;5.974;2023-07-16T05:25:25;11.70;;;4.88;;
59756;SDS011;45631;51.962;5.974;2023-07-16T05:27:59;11.10;;;4.97;;
59756;SDS011;45631;51.962;5.974;2023-07-16T05:30:27;10.50;;;4.78;;
59756;SDS011;45631;51.962;5.974;2023-07-16T05:32:55;10.80;;;5.10;;
59756;SDS011;45631;51.962;5.974;2023-07-16T05:35:26;12.63;;;4.32;;
59756;SDS011;45631;51.962;5.974;2023-07-16T05:37:54;10.75;;;4.88;;
59756;SDS011;45631;51.962;5.974;2023-07-16T05:40:23;11.05;;;4.80;;
59756;SDS011;45631;51.962;5.974;2023-07-16T05:42:51;10.60;;;5.10;;
59756;SDS011;45631;51.962;5.974;2023-07-16T05:45:20;14.50;;;5.25;;
59756;SDS011;45631;51.962;5.974;2023-07-16T05:47:49;10.60;;;4.47;;
59756;SDS011;45631;51.962;5.974;2023-07-16T05:50:18;9.55;;;4.65;;
59756;SDS011;45631;51.962;5.974;2023-07-16T05:52:46;13.65;;;5.07;;
59756;SDS011;45631;51.962;5.974;2023-07-16T05:55:15;12.55;;;4.80;;
59756;SDS011;45631;51.962;5.974;2023-07-16T05:57:46;15.38;;;4.97;;
59756;SDS011;45631;51.962;5.974;2023-07-16T06:00:15;12.63;;;4.80;;
59756;SDS011;45631;51.962;5.974;2023-07-16T06:02:44;13.02;;;4.90;;
59756;SDS011;45631;51.962;5.974;2023-07-16T06:05:12;11.45;;;4.75;;
59756;SDS011;45631;51.962;5.974;2023-07-16T06:07:41;11.82;;;5.05;;
59756;SDS011;45631;51.962;5.974;2023-07-16T06:10:09;11.57;;;5.68;;
59756;SDS011;45631;51.962;5.974;2023-07-16T06:12:37;12.88;;;5.15;;
59756;SDS011;45631;51.962;5.974;2023-07-16T06:15:06;14.02;;;5.18;;
59756;SDS011;45631;51.962;5.974;2023-07-16T06:17:35;11.02;;;5.20;;
59756;SDS011;45631;51.962;5.974;2023-07-16T06:20:05;10.15;;;5.07;;
59756;SDS011;45631;51.962;5.974;2023-07-16T06:22:34;15.90;;;5.32;;
59756;SDS011;45631;51.962;5.974;2023-07-16T06:25:03;14.77;;;5.20;;
59756;SDS011;45631;51.962;5.974;2023-07-16T06:27:32;12.27;;;5.03;;
59756;SDS011;45631;51.962;5.974;2023-07-16T06:30:00;12.48;;;5.20;;
59756;SDS011;45631;51.962;5.974;2023-07-16T06:32:28;12.20;;;5.28;;
59756;SDS011;45631;51.962;5.974;2023-07-16T06:34:56;15.68;;;6.07;;
59756;SDS011;45631;51.962;5.974;2023-07-16T06:37:26;13.27;;;5.15;;
59756;SDS011;45631;51.962;5.974;2023-07-16T06:39:54;12.23;;;5.63;;
59756;SDS011;45631;51.962;5.974;2023-07-16T06:42:22;11.32;;;4.88;;
59756;SDS011;45631;51.962;5.974;2023-07-16T06:44:50;11.32;;;5.72;;
59756;SDS011;45631;51.962;5.974;2023-07-16T06:47:18;13.93;;;5.22;;
59756;SDS011;45631;51.962;5.974;2023-07-16T06:49:46;12.60;;;4.78;;
59756;SDS011;45631;51.962;5.974;2023-07-16T06:52:20;10.70;;;5.25;;
59756;SDS011;45631;51.962;5.974;2023-07-16T06:54:50;12.95;;;5.65;;
59756;SDS011;45631;51.962;5.974;2023-07-16T06:57:19;13.15;;;5.03;;
59756;SDS011;45631;51.962;5.974;2023-07-16T06:59:47;11.27;;;5.22;;
59756;SDS011;45631;51.962;5.974;2023-07-16T07:02:15;11.32;;;5.70;;
59756;SDS011;45631;51.962;5.974;2023-07-16T07:04:44;10.50;;;5.00;;
59756;SDS011;45631;51.962;5.974;2023-07-16T07:07:12;11.70;;;4.82;;
59756;SDS011;45631;51.962;5.974;2023-07-16T07:09:40;10.38;;;5.13;;
59756;SDS011;45631;51.962;5.974;2023-07-16T07:12:10;11.27;;;5.35;;
59756;SDS011;45631;51.962;5.974;2023-07-16T07:14:38;11.98;;;4.85;;
59756;SDS011;45631;51.962;5.974;2023-07-16T07:17:06;10.40;;;5.55;;
59756;SDS011;45631;51.962;5.974;2023-07-16T07:19:34;14.05;;;5.50;;
59756;SDS011;45631;51.962;5.974;2023-07-16T07:22:02;11.60;;;5.72;;
59756;SDS011;45631;51.962;5.974;2023-07-16T07:24:31;12.48;;;5.53;;
59756;SDS011;45631;51.962;5.974;2023-07-16T07:26:59;13.55;;;5.60;;
59756;SDS011;45631;51.962;5.974;2023-07-16T07:29:31;12.73;;;5.75;;
59756;SDS011;45631;51.962;5.974;2023-07-16T07:31:59;12.52;;;5.25;;
59756;SDS011;45631;51.962;5.974;2023-07-16T07:34:27;11.55;;;5.32;;
59756;SDS011;45631;51.962;5.974;2023-07-16T07:36:55;13.45;;;5.32;;
59756;SDS011;45631;51.962;5.974;2023-07-16T07:39:25;12.25;;;5.20;;
59756;SDS011;45631;51.962;5.974;2023-07-16T07:41:53;12.10;;;5.38;;
59756;SDS011;45631;51.962;5.974;2023-07-16T07:44:21;11.95;;;4.72;;
59756;SDS011;45631;51.962;5.974;2023-07-16T07:46:51;11.07;;;5.10;;
59756;SDS011;45631;51.962;5.974;2023-07-16T07:49:19;12.27;;;4.80;;
59756;SDS011;45631;51.962;5.974;2023-07-16T07:51:47;11.95;;;5.03;;
59756;SDS011;45631;51.962;5.974;2023-07-16T07:54:15;13.63;;;5.25;;
59756;SDS011;45631;51.962;5.974;2023-07-16T07:56:44;12.77;;;5.07;;
59756;SDS011;45631;51.962;5.974;2023-07-16T07:59:13;10.85;;;4.53;;
59756;SDS011;45631;51.962;5.974;2023-07-16T08:01:43;11.02;;;4.60;;
59756;SDS011;45631;51.962;5.974;2023-07-16T08:04:13;12.40;;;5.13;;
59756;SDS011;45631;51.962;5.974;2023-07-16T08:06:41;13.20;;;5.32;;
59756;SDS011;45631;51.962;5.974;2023-07-16T08:09:10;13.10;;;5.05;;
59756;SDS011;45631;51.962;5.974;2023-07-16T08:11:38;14.50;;;5.78;;
59756;SDS011;45631;51.962;5.974;2023-07-16T08:14:06;13.10;;;5.30;;
59756;SDS011;45631;51.962;5.974;2023-07-16T08:16:34;10.68;;;5.07;;
59756;SDS011;45631;51.962;5.974;2023-07-16T08:19:02;10.23;;;5.07;;
59756;SDS011;45631;51.962;5.974;2023-07-16T08:21:33;10.00;;;4.65;;
59756;SDS011;45631;51.962;5.974;2023-07-16T08:24:02;11.27;;;4.65;;
59756;SDS011;45631;51.962;5.974;2023-07-16T08:26:31;10.50;;;4.95;;
59756;SDS011;45631;51.962;5.974;2023-07-16T08:28:59;10.85;;;4.70;;
59756;SDS011;45631;51.962;5.974;2023-07-16T08:31:29;13.05;;;4.53;;
59756;SDS011;45631;51.962;5.974;2023-07-16T08:34:00;10.02;;;4.63;;
59756;SDS011;45631;51.962;5.974;2023-07-16T08:36:30;9.75;;;4.95;;
59756;SDS011;45631;51.962;5.974;2023-07-16T08:38:59;10.77;;;4.47;;
59756;SDS011;45631;51.962;5.974;2023-07-16T08:41:28;10.38;;;5.00;;
59756;SDS011;45631;51.962;5.974;2023-07-16T08:43:56;10.98;;;4.50;;
59756;SDS011;45631;51.962;5.974;2023-07-16T08:46:25;12.35;;;5.13;;
59756;SDS011;45631;51.962;5.974;2023-07-16T08:48:53;9.85;;;4.85;;
59756;SDS011;45631;51.962;5.974;2023-07-16T08:51:22;12.63;;;4.78;;
59756;SDS011;45631;51.962;5.974;2023-07-16T08:53:54;12.27;;;5.00;;
59756;SDS011;45631;51.962;5.974;2023-07-16T08:56:23;12.65;;;4.72;;
59756;SDS011;45631;51.962;5.974;2023-07-16T08:58:52;13.63;;;4.88;;
59756;SDS011;45631;51.962;5.974;2023-07-16T09:01:23;10.30;;;4.70;;
59756;SDS011;45631;51.962;5.974;2023-07-16T09:03:51;12.07;;;5.30;;
59756;SDS011;45631;51.962;5.974;2023-07-16T09:06:19;10.88;;;4.65;;
59756;SDS011;45631;51.962;5.974;2023-07-16T09:08:48;11.65;;;5.05;;
59756;SDS011;45631;51.962;5.974;2023-07-16T09:11:16;10.18;;;4.72;;
59756;SDS011;45631;51.962;5.974;2023-07-16T09:13:52;10.00;;;4.90;;
59756;SDS011;45631;51.962;5.974;2023-07-16T09:16:20;10.63;;;4.70;;
59756;SDS011;45631;51.962;5.974;2023-07-16T09:18:50;11.07;;;5.10;;
59756;SDS011;45631;51.962;5.974;2023-07-16T09:21:19;12.65;;;5.03;;
59756;SDS011;45631;51.962;5.974;2023-07-16T09:23:47;9.93;;;4.53;;
59756;SDS011;45631;51.962;5.974;2023-07-16T09:26:17;10.45;;;4.72;;
59756;SDS011;45631;51.962;5.974;2023-07-16T09:28:47;10.48;;;4.53;;
59756;SDS011;45631;51.962;5.974;2023-07-16T09:31:17;10.85;;;4.72;;
59756;SDS011;45631;51.962;5.974;2023-07-16T09:33:46;10.00;;;4.38;;
59756;SDS011;45631;51.962;5.974;2023-07-16T09:36:22;9.57;;;4.53;;
59756;SDS011;45631;51.962;5.974;2023-07-16T09:38:51;8.77;;;4.25;;
59756;SDS011;45631;51.962;5.974;2023-07-16T09:41:21;9.13;;;4.40;;
59756;SDS011;45631;51.962;5.974;2023-07-16T09:43:49;9.93;;;4.03;;
59756;SDS011;45631;51.962;5.974;2023-07-16T09:46:19;9.15;;;4.10;;
59756;SDS011;45631;51.962;5.974;2023-07-16T09:48:49;10.45;;;4.53;;
59756;SDS011;45631;51.962;5.974;2023-07-16T09:51:17;10.57;;;4.55;;
59756;SDS011;45631;51.962;5.974;2023-07-16T09:53:47;9.15;;;4.15;;
59756;SDS011;45631;51.962;5.974;2023-07-16T09:56:18;10.48;;;4.90;;
59756;SDS011;45631;51.962;5.974;2023-07-16T09:58:50;11.15;;;4.40;;
59756;SDS011;45631;51.962;5.974;2023-07-16T10:01:21;8.93;;;4.18;;
59756;SDS011;45631;51.962;5.974;2023-07-16T10:03:50;9.63;;;4.40;;
59756;SDS011;45631;51.962;5.974;2023-07-16T10:06:19;10.75;;;4.47;;
59756;SDS011;45631;51.962;5.974;2023-07-16T10:08:48;9.32;;;3.72;;
59756;SDS011;45631;51.962;5.974;2023-07-16T10:11:18;10.93;;;4.78;;
59756;SDS011;45631;51.962;5.974;2023-07-16T10:13:49;10.70;;;4.20;;
59756;SDS011;45631;51.962;5.974;2023-07-16T10:16:22;9.77;;;4.10;;
59756;SDS011;45631;51.962;5.974;2023-07-16T10:18:54;11.48;;;4.10;;
59756;SDS011;45631;51.962;5.974;2023-07-16T10:21:22;10.23;;;4.30;;
59756;SDS011;45631;51.962;5.974;2023-07-16T10:23:56;10.93;;;4.50;;
59756;SDS011;45631;51.962;5.974;2023-07-16T10:26:26;9.48;;;4.10;;
59756;SDS011;45631;51.962;5.974;2023-07-16T10:28:55;9.32;;;4.15;;
59756;SDS011;45631;51.962;5.974;2023-07-16T10:31:25;8.25;;;4.22;;
59756;SDS011;45631;51.962;5.974;2023-07-16T10:34:00;8.52;;;3.97;;
59756;SDS011;45631;51.962;5.974;2023-07-16T10:36:28;10.25;;;4.53;;
59756;SDS011;45631;51.962;5.974;2023-07-16T10:39:02;11.10;;;4.30;;
59756;SDS011;45631;51.962;5.974;2023-07-16T10:41:31;9.65;;;4.18;;
59756;SDS011;45631;51.962;5.974;2023-07-16T10:44:00;12.68;;;4.65;;
59756;SDS011;45631;51.962;5.974;2023-07-16T10:46:30;8.82;;;3.92;;
59756;SDS011;45631;51.962;5.974;2023-07-16T10:48:59;11.00;;;4.32;;
59756;SDS011;45631;51.962;5.974;2023-07-16T10:51:27;11.88;;;4.35;;
59756;SDS011;45631;51.962;5.974;2023-07-16T10:53:56;9.07;;;4.70;;
59756;SDS011;45631;51.962;5.974;2023-07-16T10:56:24;11.43;;;4.63;;
59756;SDS011;45631;51.962;5.974;2023-07-16T10:58:53;9.38;;;4.50;;
59756;SDS011;45631;51.962;5.974;2023-07-16T11:01:21;9.70;;;4.15;;
59756;SDS011;45631;51.962;5.974;2023-07-16T11:03:51;10.38;;;4.60;;
59756;SDS011;45631;51.962;5.974;2023-07-16T11:06:19;9.43;;;4.25;;
59756;SDS011;45631;51.962;5.974;2023-07-16T11:08:48;12.38;;;4.32;;
59756;SDS011;45631;51.962;5.974;2023-07-16T11:11:27;10.02;;;4.72;;
59756;SDS011;45631;51.962;5.974;2023-07-16T11:13:56;9.30;;;4.22;;
59756;SDS011;45631;51.962;5.974;2023-07-16T11:16:24;10.55;;;4.43;;
59756;SDS011;45631;51.962;5.974;2023-07-16T11:18:57;8.15;;;3.50;;
59756;SDS011;45631;51.962;5.974;2023-07-16T11:21:25;8.13;;;3.53;;
59756;SDS011;45631;51.962;5.974;2023-07-16T11:23:53;9.20;;;3.90;;
59756;SDS011;45631;51.962;5.974;2023-07-16T11:26:23;8.35;;;3.60;;
59756;SDS011;45631;51.962;5.974;2023-07-16T11:28:51;11.15;;;4.10;;
59756;SDS011;45631;51.962;5.974;2023-07-16T11:31:19;8.65;;;3.90;;
59756;SDS011;45631;51.962;5.974;2023-07-16T11:33:50;7.38;;;3.70;;
59756;SDS011;45631;51.962;5.974;2023-07-16T11:36:20;10.38;;;4.43;;
59756;SDS011;45631;51.962;5.974;2023-07-16T11:38:48;11.52;;;4.28;;
59756;SDS011;45631;51.962;5.974;2023-07-16T11:41:19;9.48;;;3.83;;
59756;SDS011;45631;51.962;5.974;2023-07-16T11:43:48;8.23;;;3.63;;
59756;SDS011;45631;51.962;5.974;2023-07-16T11:46:17;10.77;;;4.07;;
59756;SDS011;45631;51.962;5.974;2023-07-16T11:48:46;8.32;;;3.47;;
59756;SDS011;45631;51.962;5.974;2023-07-16T11:51:14;9.15;;;4.00;;
59756;SDS011;45631;51.962;5.974;2023-07-16T11:53:44;8.48;;;4.05;;
59756;SDS011;45631;51.962;5.974;2023-07-16T11:56:12;10.55;;;4.03;;
59756;SDS011;45631;51.962;5.974;2023-07-16T11:58:40;10.55;;;3.70;;
59756;SDS011;45631;51.962;5.974;2023-07-16T12:01:09;10.07;;;3.78;;
59756;SDS011;45631;51.962;5.974;2023-07-16T12:03:38;13.50;;;4.15;;
59756;SDS011;45631;51.962;5.974;2023-07-16T12:06:06;7.65;;;3.47;;
59756;SDS011;45631;51.962;5.974;2023-07-16T12:08:35;9.23;;;4.47;;
59756;SDS011;45631;51.962;5.974;2023-07-16T12:11:05;10.98;;;4.55;;
59756;SDS011;45631;51.962;5.974;2023-07-16T12:13:33;10.75;;;4.07;;
59756;SDS011;45631;51.962;5.974;2023-07-16T12:16:02;10.18;;;3.70;;
59756;SDS011;45631;51.962;5.974;2023-07-16T12:18:30;8.23;;;4.25;;
59756;SDS011;45631;51.962;5.974;2023-07-16T12:20:58;7.03;;;3.90;;
59756;SDS011;45631;51.962;5.974;2023-07-16T12:23:26;7.85;;;4.05;;
59756;SDS011;45631;51.962;5.974;2023-07-16T12:25:54;9.98;;;3.78;;
59756;SDS011;45631;51.962;5.974;2023-07-16T12:28:24;9.50;;;4.10;;
59756;SDS011;45631;51.962;5.974;2023-07-16T12:30:52;8.45;;;3.85;;
59756;SDS011;45631;51.962;5.974;2023-07-16T12:33:20;11.25;;;4.43;;
59756;SDS011;45631;51.962;5.974;2023-07-16T12:35:48;9.45;;;4.20;;
59756;SDS011;45631;51.962;5.974;2023-07-16T12:38:19;8.20;;;4.32;;
59756;SDS011;45631;51.962;5.974;2023-07-16T12:40:47;8.95;;;3.90;;
59756;SDS011;45631;51.962;5.974;2023-07-16T12:43:18;10.38;;;4.43;;
59756;SDS011;45631;51.962;5.974;2023-07-16T12:45:48;11.88;;;4.57;;
59756;SDS011;45631;51.962;5.974;2023-07-16T12:48:16;9.27;;;3.85;;
59756;SDS011;45631;51.962;5.974;2023-07-16T12:50:47;9.48;;;3.83;;
59756;SDS011;45631;51.962;5.974;2023-07-16T12:53:15;9.13;;;4.47;;
59756;SDS011;45631;51.962;5.974;2023-07-16T12:55:44;7.22;;;3.72;;
59756;SDS011;45631;51.962;5.974;2023-07-16T12:58:12;8.63;;;3.78;;
59756;SDS011;45631;51.962;5.974;2023-07-16T13:00:40;8.20;;;3.55;;
59756;SDS011;45631;51.962;5.974;2023-07-16T13:03:12;8.40;;;3.70;;
59756;SDS011;45631;51.962;5.974;2023-07-16T13:05:43;9.52;;;3.70;;
59756;SDS011;45631;51.962;5.974;2023-07-16T13:08:12;7.82;;;4.03;;
59756;SDS011;45631;51.962;5.974;2023-07-16T13:10:40;9.30;;;3.72;;
59756;SDS011;45631;51.962;5.974;2023-07-16T13:13:08;9.43;;;3.60;;
59756;SDS011;45631;51.962;5.974;2023-07-16T13:15:36;6.55;;;3.15;;
59756;SDS011;45631;51.962;5.974;2023-07-16T13:18:05;10.88;;;4.18;;
59756;SDS011;45631;51.962;5.974;2023-07-16T13:20:34;7.93;;;2.95;;
59756;SDS011;45631;51.962;5.974;2023-07-16T13:23:02;6.32;;;2.85;;
59756;SDS011;45631;51.962;5.974;2023-07-16T13:25:31;6.57;;;3.20;;
59756;SDS011;45631;51.962;5.974;2023-07-16T13:27:59;8.65;;;3.60;;
59756;SDS011;45631;51.962;5.974;2023-07-16T13:30:27;7.70;;;3.60;;
59756;SDS011;45631;51.962;5.974;2023-07-16T13:32:55;7.20;;;3.47;;
59756;SDS011;45631;51.962;5.974;2023-07-16T13:35:24;11.15;;;3.53;;
59756;SDS011;45631;51.962;5.974;2023-07-16T13:37:53;9.18;;;3.80;;
59756;SDS011;45631;51.962;5.974;2023-07-16T13:40:21;9.32;;;3.67;;
59756;SDS011;45631;51.962;5.974;2023-07-16T13:42:49;9.10;;;3.50;;
59756;SDS011;45631;51.962;5.974;2023-07-16T13:45:19;7.28;;;3.60;;
59756;SDS011;45631;51.962;5.974;2023-07-16T13:47:47;7.63;;;3.20;;
59756;SDS011;45631;51.962;5.974;2023-07-16T13:50:18;6.47;;;3.40;;
59756;SDS011;45631;51.962;5.974;2023-07-16T13:52:46;8.73;;;2.80;;
59756;SDS011;45631;51.962;5.974;2023-07-16T13:55:16;6.80;;;3.05;;
59756;SDS011;45631;51.962;5.974;2023-07-16T14:00:15;5.88;;;2.72;;
59756;SDS011;45631;51.962;5.974;2023-07-16T14:02:44;11.43;;;2.92;;
59756;SDS011;45631;51.962;5.974;2023-07-16T14:05:12;6.43;;;2.90;;
59756;SDS011;45631;51.962;5.974;2023-07-16T14:07:40;8.00;;;2.78;;
59756;SDS011;45631;51.962;5.974;2023-07-16T14:10:08;5.95;;;2.53;;
59756;SDS011;45631;51.962;5.974;2023-07-16T14:12:39;7.00;;;2.63;;
59756;SDS011;45631;51.962;5.974;2023-07-16T14:15:07;6.70;;;2.50;;
59756;SDS011;45631;51.962;5.974;2023-07-16T14:17:35;6.78;;;2.70;;
59756;SDS011;45631;51.962;5.974;2023-07-16T14:20:04;6.70;;;2.70;;
59756;SDS011;45631;51.962;5.974;2023-07-16T14:22:33;5.90;;;2.50;;
59756;SDS011;45631;51.962;5.974;2023-07-16T14:25:01;7.03;;;2.80;;
59756;SDS011;45631;51.962;5.974;2023-07-16T14:27:30;5.10;;;2.30;;
59756;SDS011;45631;51.962;5.974;2023-07-16T14:30:00;6.13;;;2.28;;
59756;SDS011;45631;51.962;5.974;2023-07-16T14:32:32;5.03;;;2.10;;
59756;SDS011;45631;51.962;5.974;2023-07-16T14:35:00;6.03;;;2.20;;
59756;SDS011;45631;51.962;5.974;2023-07-16T14:37:28;7.05;;;2.40;;
59756;SDS011;45631;51.962;5.974;2023-07-16T14:39:57;5.03;;;2.08;;
59756;SDS011;45631;51.962;5.974;2023-07-16T14:42:25;5.32;;;2.20;;
59756;SDS011;45631;51.962;5.974;2023-07-16T14:44:53;4.72;;;2.08;;
59756;SDS011;45631;51.962;5.974;2023-07-16T14:47:23;6.32;;;2.38;;
59756;SDS011;45631;51.962;5.974;2023-07-16T14:49:51;6.50;;;2.47;;
59756;SDS011;45631;51.962;5.974;2023-07-16T14:52:19;7.68;;;2.58;;
59756;SDS011;45631;51.962;5.974;2023-07-16T14:54:47;5.05;;;1.98;;